createdAt,value
2019-04-25T00:01:09.079Z,100398.58
2019-04-25T00:03:39.294Z,100389.70
2019-04-25T00:06:09.030Z,100389.48
2019-04-25T00:08:37.705Z,100391.62
2019-04-25T00:11:06.788Z,100397.22
2019-04-25T00:13:35.372Z,100395.36
2019-04-25T00:16:04.658Z,100398.08
2019-04-25T00:18:33.384Z,100394.83
2019-04-25T00:21:03.812Z,100405.45
2019-04-25T00:23:32.473Z,100400.22
2019-04-25T00:26:05.074Z,100399.23
2019-04-25T00:28:33.611Z,100385.80
2019-04-25T00:31:02.806Z,100385.52
2019-04-25T00:33:31.629Z,100390.73
2019-04-25T00:36:02.100Z,100379.60
2019-04-25T00:38:31.851Z,100377.14
2019-04-25T00:41:01.756Z,100374.33
2019-04-25T00:43:31.466Z,100375.34
2019-04-25T00:46:01.512Z,100382.29
2019-04-25T00:48:31.596Z,100375.80
2019-04-25T00:51:01.738Z,100372.24
2019-04-25T00:53:32.265Z,100361.35
2019-04-25T00:56:01.442Z,100353.53
2019-04-25T00:58:34.494Z,100352.98
2019-04-25T01:01:22.989Z,100357.27
2019-04-25T01:03:53.315Z,100357.61
2019-04-25T01:06:22.117Z,100355.72
2019-04-25T01:08:53.236Z,100366.55
2019-04-25T01:11:21.540Z,100361.14
2019-04-25T01:13:50.776Z,100353.38
2019-04-25T01:16:22.018Z,100351.88
2019-04-25T01:18:50.924Z,100357.11
2019-04-25T01:21:19.596Z,100361.67
2019-04-25T01:23:48.140Z,100360.16
2019-04-25T01:26:16.684Z,100361.81
2019-04-25T01:28:46.051Z,100362.60
2019-04-25T01:31:16.736Z,100367.77
2019-04-25T01:33:46.676Z,100364.86
2019-04-25T01:36:17.146Z,100391.52
2019-04-25T01:38:50.972Z,100390.67
2019-04-25T01:41:37.279Z,100381.78
2019-04-25T01:44:10.123Z,100388.00
2019-04-25T01:46:40.409Z,100380.02
2019-04-25T01:49:09.043Z,100385.36
2019-04-25T01:51:37.641Z,100392.44
2019-04-25T01:54:06.236Z,100396.44
2019-04-25T01:56:35.024Z,100393.56
2019-04-25T01:59:04.019Z,100398.33
2019-04-25T02:01:34.070Z,100406.45
2019-04-25T02:04:03.563Z,100410.99
2019-04-25T02:06:33.489Z,100407.15
2019-04-25T02:09:04.178Z,100395.54
2019-04-25T02:11:34.656Z,100400.34
2019-04-25T02:14:05.063Z,100392.38
2019-04-25T02:16:35.324Z,100386.69
2019-04-25T02:19:04.438Z,100394.66
2019-04-25T02:21:33.478Z,100390.39
2019-04-25T02:24:03.885Z,100402.91
2019-04-25T02:26:33.970Z,100408.98
2019-04-25T02:29:04.579Z,100401.12
2019-04-25T02:31:34.795Z,100392.44
2019-04-25T02:34:07.837Z,100400.42
2019-04-25T02:36:34.741Z,100394.03
2019-04-25T02:39:08.971Z,100399.77
2019-04-25T02:41:36.831Z,100396.55
2019-04-25T02:44:09.788Z,100400.16
2019-04-25T02:46:37.606Z,100400.16
2019-04-25T02:49:29.344Z,100410.09
2019-04-25T02:51:48.846Z,100412.91
2019-04-25T02:54:17.488Z,100426.39
2019-04-25T02:56:46.757Z,100422.48
2019-04-25T02:59:15.454Z,100419.06
2019-04-25T03:01:44.603Z,100409.56
2019-04-25T03:04:14.442Z,100416.72
2019-04-25T03:06:45.287Z,100413.23
2019-04-25T03:09:15.364Z,100415.12
2019-04-25T03:11:45.193Z,100411.88
2019-04-25T03:14:14.783Z,100411.03
2019-04-25T03:16:44.844Z,100412.87
2019-04-25T03:19:15.320Z,100415.30
2019-04-25T03:21:55.046Z,100412.86
2019-04-25T03:24:25.027Z,100411.09
2019-04-25T03:26:53.818Z,100403.34
2019-04-25T03:29:22.531Z,100404.96
2019-04-25T03:31:51.117Z,100399.66
2019-04-25T03:34:20.764Z,100401.19
2019-04-25T03:36:49.665Z,100400.48
2019-04-25T03:39:18.244Z,100399.05
2019-04-25T03:41:46.868Z,100404.81
2019-04-25T03:44:15.754Z,100404.05
2019-04-25T03:46:44.877Z,100414.34
2019-04-25T03:49:13.899Z,100413.53
2019-04-25T03:51:43.887Z,100408.73
2019-04-25T03:54:14.115Z,100406.82
2019-04-25T03:56:51.886Z,100407.38
2019-04-25T03:59:14.589Z,100403.95
2019-04-25T04:01:43.901Z,100407.73
2019-04-25T04:04:14.380Z,100403.27
2019-04-25T04:06:44.107Z,100404.86
2019-04-25T04:09:14.219Z,100407.81
2019-04-25T04:11:43.548Z,100404.56
2019-04-25T04:14:12.976Z,100405.56
2019-04-25T04:16:44.376Z,100403.88
2019-04-25T04:19:14.778Z,100399.30
2019-04-25T04:21:53.121Z,100405.23
2019-04-25T04:24:23.930Z,100400.66
2019-04-25T04:27:10.805Z,100410.77
2019-04-25T04:29:40.051Z,100414.63
2019-04-25T04:32:08.732Z,100422.32
2019-04-25T04:34:37.182Z,100427.89
2019-04-25T04:37:05.825Z,100429.59
2019-04-25T04:39:34.361Z,100439.53
2019-04-25T04:42:03.853Z,100417.02
2019-04-25T04:44:34.200Z,100418.91
2019-04-25T04:47:04.063Z,100417.80
2019-04-25T04:49:34.104Z,100420.61
2019-04-25T04:52:06.111Z,100427.98
2019-04-25T04:54:34.459Z,100435.58
2019-04-25T04:57:16.606Z,100435.06
2019-04-25T04:59:33.762Z,100434.89
2019-04-25T05:02:03.981Z,100429.97
2019-04-25T05:04:50.282Z,100436.83
2019-04-25T05:07:36.964Z,100428.80
2019-04-25T05:10:06.345Z,100440.50
2019-04-25T05:12:34.828Z,100443.70
2019-04-25T05:15:04.830Z,100444.06
2019-04-25T05:17:34.259Z,100449.48
2019-04-25T05:20:03.539Z,100444.89
2019-04-25T05:22:33.336Z,100455.28
2019-04-25T05:25:03.466Z,100457.31
2019-04-25T05:27:39.941Z,100457.31
2019-04-25T05:30:03.992Z,100454.56
2019-04-25T05:32:34.160Z,100450.28
2019-04-25T05:35:03.385Z,100450.34
2019-04-25T05:37:33.499Z,100450.34
2019-04-25T05:40:03.423Z,100444.98
2019-04-25T05:42:50.267Z,100436.41
2019-04-25T05:45:21.247Z,100432.99
2019-04-25T05:47:49.913Z,100431.61
2019-04-25T05:50:18.463Z,100445.56
2019-04-25T05:52:47.105Z,100445.81
2019-04-25T05:55:17.306Z,100451.25
2019-04-25T05:57:50.005Z,100447.78
2019-04-25T06:00:18.102Z,100443.47
2019-04-25T06:02:46.927Z,100432.78
2019-04-25T06:05:15.666Z,100427.39
2019-04-25T06:07:44.246Z,100434.66
2019-04-25T06:10:18.090Z,100447.73
2019-04-25T06:12:48.237Z,100447.27
2019-04-25T06:15:18.405Z,100462.61
2019-04-25T06:17:48.600Z,100471.34
2019-04-25T06:20:19.989Z,100484.76
2019-04-25T06:22:53.378Z,100479.62
2019-04-25T06:25:29.310Z,100485.29
2019-04-25T06:27:58.610Z,100480.48
2019-04-25T06:30:28.073Z,100484.63
2019-04-25T06:32:56.661Z,100492.46
2019-04-25T06:35:26.625Z,100495.50
2019-04-25T06:37:55.739Z,100491.75
2019-04-25T06:40:26.318Z,100489.45
2019-04-25T06:42:55.697Z,100484.31
2019-04-25T06:45:30.201Z,100496.12
2019-04-25T06:48:00.350Z,100480.67
2019-04-25T06:50:29.083Z,100470.90
2019-04-25T06:52:57.558Z,100476.14
2019-04-25T06:55:27.213Z,100483.98
2019-04-25T06:57:56.173Z,100482.28
2019-04-25T07:00:28.418Z,100482.72
2019-04-25T07:02:55.368Z,100493.84
2019-04-25T07:05:28.975Z,100487.81
2019-04-25T07:07:54.242Z,100495.84
2019-04-25T07:10:24.152Z,100493.19
2019-04-25T07:12:54.384Z,100500.59
2019-04-25T07:15:25.641Z,100508.69
2019-04-25T07:17:54.086Z,100505.77
2019-04-25T07:20:26.114Z,100505.41
2019-04-25T07:22:54.107Z,100513.94
2019-04-25T07:25:26.361Z,100512.38
2019-04-25T07:28:22.227Z,100507.98
2019-04-25T07:31:00.682Z,100506.83
2019-04-25T07:33:40.119Z,100518.59
2019-04-25T07:36:08.828Z,100530.38
2019-04-25T07:38:37.458Z,100522.46
2019-04-25T07:41:06.115Z,100529.97
2019-04-25T07:43:35.418Z,100534.55
2019-04-25T07:46:05.112Z,100540.63
2019-04-25T07:48:36.635Z,100539.41
2019-04-25T07:51:03.945Z,100536.36
2019-04-25T07:53:34.597Z,100536.77
2019-04-25T07:56:04.249Z,100533.36
2019-04-25T07:58:49.580Z,100526.74
2019-04-25T08:01:14.074Z,100527.25
2019-04-25T08:03:43.833Z,100540.42
2019-04-25T08:06:13.825Z,100547.32
2019-04-25T08:08:43.667Z,100530.88
2019-04-25T08:11:14.268Z,100540.23
2019-04-25T08:13:44.460Z,100529.82
2019-04-25T08:16:17.406Z,100521.40
2019-04-25T08:18:46.422Z,100512.59
2019-04-25T08:21:15.383Z,100513.80
2019-04-25T08:23:44.280Z,100512.79
2019-04-25T08:26:14.246Z,100508.32
2019-04-25T08:28:53.983Z,100515.27
2019-04-25T08:31:13.666Z,100521.19
2019-04-25T08:33:43.786Z,100536.16
2019-04-25T08:36:13.688Z,100541.65
2019-04-25T08:38:44.557Z,100540.31
2019-04-25T08:41:14.025Z,100548.52
2019-04-25T08:43:43.655Z,100549.37
2019-04-25T08:46:13.974Z,100554.16
2019-04-25T08:49:06.143Z,100553.73
2019-04-25T08:51:37.879Z,100543.36
2019-04-25T08:54:11.509Z,100543.38
2019-04-25T08:56:40.175Z,100544.95
2019-04-25T08:59:35.996Z,100559.05
2019-04-25T09:02:14.933Z,100564.25
2019-04-25T09:05:00.214Z,100552.98
2019-04-25T09:07:28.999Z,100554.31
2019-04-25T09:09:57.576Z,100559.22
2019-04-25T09:12:26.191Z,100545.16
2019-04-25T09:14:54.734Z,100532.07
2019-04-25T09:17:24.335Z,100543.39
2019-04-25T09:19:54.187Z,100541.58
2019-04-25T09:22:24.239Z,100540.55
2019-04-25T09:24:53.976Z,100554.00
2019-04-25T09:27:23.505Z,100552.34
2019-04-25T09:29:54.077Z,100562.50
2019-04-25T09:32:23.885Z,100559.59
2019-04-25T09:34:54.028Z,100559.70
2019-04-25T09:37:24.514Z,100565.09
2019-04-25T09:40:04.228Z,100557.88
2019-04-25T09:42:33.841Z,100562.21
2019-04-25T09:45:04.940Z,100551.38
2019-04-25T09:47:33.692Z,100544.73
2019-04-25T09:50:04.212Z,100539.57
2019-04-25T09:52:34.038Z,100543.23
2019-04-25T09:55:07.310Z,100543.23
2019-04-25T09:57:46.381Z,100532.70
2019-04-25T10:00:17.265Z,100531.27
2019-04-25T10:02:45.883Z,100528.77
2019-04-25T10:05:14.452Z,100532.63
2019-04-25T10:07:45.839Z,100535.92
2019-04-25T10:10:13.671Z,100549.22
2019-04-25T10:12:42.291Z,100531.40
2019-04-25T10:15:20.276Z,100523.52
2019-04-25T10:17:48.858Z,100525.32
2019-04-25T10:20:19.140Z,100534.23
2019-04-25T10:22:47.736Z,100534.61
2019-04-25T10:25:16.713Z,100526.66
2019-04-25T10:27:48.865Z,100519.02
2019-04-25T10:30:21.576Z,100527.64
2019-04-25T10:32:48.038Z,100532.34
2019-04-25T10:35:16.641Z,100538.98
2019-04-25T10:37:46.491Z,100542.37
2019-04-25T10:40:16.353Z,100544.09
2019-04-25T10:42:48.085Z,100541.10
2019-04-25T10:45:23.354Z,100541.45
2019-04-25T10:47:46.754Z,100538.20
2019-04-25T10:50:16.108Z,100527.73
2019-04-25T10:52:46.158Z,100523.15
2019-04-25T10:55:15.166Z,100517.47
2019-04-25T10:57:45.496Z,100522.18
2019-04-25T11:00:45.882Z,100517.27
2019-04-25T11:03:18.941Z,100509.60
2019-04-25T11:05:47.712Z,100498.73
2019-04-25T11:08:16.924Z,100497.29
2019-04-25T11:10:47.493Z,100494.34
2019-04-25T11:13:16.956Z,100478.72
2019-04-25T11:15:45.670Z,100480.64
2019-04-25T11:18:15.256Z,100483.25
2019-04-25T11:20:44.684Z,100474.75
2019-04-25T11:23:14.013Z,100472.57
2019-04-25T11:25:43.544Z,100478.52
2019-04-25T11:28:14.421Z,100480.28
2019-04-25T11:30:45.895Z,100462.27
2019-04-25T11:33:15.973Z,100470.17
2019-04-25T11:35:46.830Z,100480.80
2019-04-25T11:38:16.576Z,100480.86
2019-04-25T11:40:49.154Z,100487.19
2019-04-25T11:43:17.065Z,100501.89
2019-04-25T11:45:46.053Z,100502.25
2019-04-25T11:48:15.106Z,100503.92
2019-04-25T11:50:47.268Z,100495.45
2019-04-25T11:53:14.039Z,100498.41
2019-04-25T11:55:43.617Z,100486.70
2019-04-25T11:58:12.197Z,100477.67
2019-04-25T12:00:40.876Z,100475.54
2019-04-25T12:03:09.707Z,100474.13
2019-04-25T12:05:38.345Z,100465.45
2019-04-25T12:08:07.282Z,100464.48
2019-04-25T12:10:36.845Z,100443.86
2019-04-25T12:13:05.467Z,100436.35
2019-04-25T12:15:34.154Z,100440.27
2019-04-25T12:18:04.556Z,100426.61
2019-04-25T12:20:34.078Z,100421.47
2019-04-25T12:23:08.470Z,100419.16
2019-04-25T12:25:34.074Z,100410.48
2019-04-25T12:28:04.580Z,100409.78
2019-04-25T12:30:38.328Z,100411.44
2019-04-25T12:33:03.729Z,100404.52
2019-04-25T12:35:33.328Z,100408.88
2019-04-25T12:38:03.449Z,100396.22
2019-04-25T12:40:34.236Z,100399.87
2019-04-25T12:43:03.121Z,100384.70
2019-04-25T12:45:34.761Z,100389.39
2019-04-25T12:48:04.994Z,100380.61
2019-04-25T12:50:33.763Z,100373.13
2019-04-25T12:53:03.685Z,100387.75
2019-04-25T12:55:34.215Z,100386.31
2019-04-25T12:58:03.550Z,100388.44
2019-04-25T13:00:34.201Z,100387.42
2019-04-25T13:03:04.058Z,100386.38
2019-04-25T13:05:34.217Z,100384.55
2019-04-25T13:08:04.729Z,100390.92
2019-04-25T13:10:33.369Z,100385.26
2019-04-25T13:13:03.963Z,100387.48
2019-04-25T13:15:33.506Z,100381.08
2019-04-25T13:18:03.545Z,100368.64
2019-04-25T13:20:32.913Z,100359.48
2019-04-25T13:23:03.536Z,100363.64
2019-04-25T13:25:34.282Z,100363.46
2019-04-25T13:28:14.434Z,100364.13
2019-04-25T13:30:44.671Z,100359.37
2019-04-25T13:33:20.655Z,100360.67
2019-04-25T13:36:06.925Z,100358.33
2019-04-25T13:38:35.615Z,100355.30
2019-04-25T13:41:04.196Z,100356.93
2019-04-25T13:43:32.896Z,100362.41
2019-04-25T13:46:01.760Z,100370.70
2019-04-25T13:48:30.419Z,100370.19
2019-04-25T13:50:59.062Z,100383.36
2019-04-25T13:53:27.748Z,100385.86
2019-04-25T13:55:56.356Z,100381.03
2019-04-25T13:58:25.521Z,100379.20
2019-04-25T14:00:54.270Z,100374.41
2019-04-25T14:03:23.050Z,100379.05
2019-04-25T14:05:51.549Z,100378.49
2019-04-25T14:08:21.010Z,100381.27
2019-04-25T14:10:49.585Z,100383.31
2019-04-25T14:13:18.211Z,100392.34
2019-04-25T14:15:51.281Z,100386.93
2019-04-25T14:18:37.461Z,100388.25
2019-04-25T14:21:10.380Z,100387.47
2019-04-25T14:23:39.018Z,100387.86
2019-04-25T14:26:08.299Z,100380.48
2019-04-25T14:28:36.938Z,100385.31
2019-04-25T14:31:07.189Z,100388.08
2019-04-25T14:33:35.776Z,100389.35
2019-04-25T14:36:04.570Z,100385.98
2019-04-25T14:38:33.867Z,100387.48
2019-04-25T14:41:02.942Z,100387.22
2019-04-25T14:43:31.494Z,100388.17
2019-04-25T14:46:00.764Z,100388.03
2019-04-25T14:48:29.465Z,100386.17
2019-04-25T14:50:58.142Z,100384.48
2019-04-25T14:53:26.719Z,100392.20
2019-04-25T14:56:02.741Z,100394.41
2019-04-25T14:58:32.961Z,100396.82
2019-04-25T15:01:01.599Z,100401.39
2019-04-25T15:03:30.179Z,100404.58
2019-04-25T15:05:59.424Z,100414.61
2019-04-25T15:08:28.547Z,100403.59
2019-04-25T15:10:57.123Z,100405.98
2019-04-25T15:13:25.867Z,100397.69
2019-04-25T15:15:54.508Z,100401.62
2019-04-25T15:18:23.506Z,100401.62
2019-04-25T15:20:52.494Z,100396.49
2019-04-25T15:23:21.127Z,100403.59
2019-04-25T15:25:49.727Z,100405.58
2019-04-25T15:28:18.235Z,100411.48
2019-04-25T15:30:47.139Z,100410.89
2019-04-25T15:33:15.815Z,100411.27
2019-04-25T15:35:49.017Z,100409.89
2019-04-25T15:38:34.375Z,100420.54
2019-04-25T15:41:04.716Z,100413.24
2019-04-25T15:43:34.968Z,100414.26
2019-04-25T15:46:08.128Z,100420.95
2019-04-25T15:48:37.334Z,100420.16
2019-04-25T15:51:06.096Z,100415.43
2019-04-25T15:53:35.042Z,100427.66
2019-04-25T15:56:04.159Z,100409.53
2019-04-25T15:58:33.061Z,100409.28
2019-04-25T16:01:01.726Z,100406.52
2019-04-25T16:03:30.813Z,100408.69
2019-04-25T16:05:59.469Z,100409.08
2019-04-25T16:08:28.749Z,100412.80
2019-04-25T16:10:57.560Z,100422.70
2019-04-25T16:13:27.013Z,100419.04
2019-04-25T16:15:56.123Z,100425.56
2019-04-25T16:18:24.714Z,100436.48
2019-04-25T16:20:53.346Z,100438.86
2019-04-25T16:23:21.906Z,100439.91
2019-04-25T16:25:50.487Z,100438.27
2019-04-25T16:28:19.110Z,100428.88
2019-04-25T16:30:47.801Z,100432.73
2019-04-25T16:33:16.406Z,100421.33
2019-04-25T16:35:45.047Z,100427.42
2019-04-25T16:38:14.063Z,100431.60
2019-04-25T16:40:42.684Z,100443.91
2019-04-25T16:43:12.840Z,100450.41
2019-04-25T16:45:41.477Z,100457.63
2019-04-25T16:48:10.159Z,100461.98
2019-04-25T16:50:39.999Z,100469.06
2019-04-25T16:53:08.695Z,100468.22
2019-04-25T16:55:37.285Z,100458.87
2019-04-25T16:58:06.205Z,100475.73
2019-04-25T17:00:42.516Z,100495.25
2019-04-25T17:03:12.039Z,100499.06
2019-04-25T17:05:40.828Z,100499.95
2019-04-25T17:08:09.814Z,100497.44
2019-04-25T17:10:39.474Z,100499.77
2019-04-25T17:13:09.115Z,100509.28
2019-04-25T17:15:55.495Z,100506.91
2019-04-25T17:18:25.696Z,100511.65
2019-04-25T17:21:05.110Z,100518.95
2019-04-25T17:23:34.485Z,100511.28
2019-04-25T17:26:04.816Z,100520.68
2019-04-25T17:28:35.096Z,100521.92
2019-04-25T17:31:11.164Z,100524.34
2019-04-25T17:33:41.540Z,100526.54
2019-04-25T17:36:15.610Z,100530.62
2019-04-25T17:38:48.834Z,100523.31
2019-04-25T17:41:17.450Z,100534.30
2019-04-25T17:43:46.067Z,100537.48
2019-04-25T17:46:16.254Z,100536.89
2019-04-25T17:48:44.772Z,100548.13
2019-04-25T17:51:13.365Z,100548.95
2019-04-25T17:53:42.050Z,100556.12
2019-04-25T17:56:10.764Z,100565.10
2019-04-25T17:58:39.377Z,100558.67
2019-04-25T18:01:09.825Z,100561.99
2019-04-25T18:03:39.354Z,100559.05
2019-04-25T18:06:08.013Z,100548.28
2019-04-25T18:08:37.490Z,100532.44
2019-04-25T18:11:06.766Z,100543.48
2019-04-25T18:13:38.496Z,100553.02
2019-04-25T18:16:13.184Z,100563.70
2019-04-25T18:18:46.403Z,100559.09
2019-04-25T18:21:15.005Z,100560.83
2019-04-25T18:23:45.266Z,100566.15
2019-04-25T18:26:30.369Z,100567.59
2019-04-25T18:29:09.645Z,100568.98
2019-04-25T18:31:38.279Z,100567.88
2019-04-25T18:34:11.288Z,100567.08
2019-04-25T18:36:57.359Z,100573.30
2019-04-25T18:39:33.569Z,100587.34
2019-04-25T18:42:09.831Z,100590.99
2019-04-25T18:44:38.383Z,100598.58
2019-04-25T18:47:07.004Z,100628.59
2019-04-25T18:49:36.344Z,100642.75
2019-04-25T18:52:07.642Z,100632.83
2019-04-25T18:54:41.139Z,100630.62
2019-04-25T18:57:11.279Z,100647.22
2019-04-25T18:59:44.544Z,100657.01
2019-04-25T19:02:15.093Z,100670.16
2019-04-25T19:04:45.244Z,100678.51
2019-04-25T19:07:22.473Z,100696.69
2019-04-25T19:09:44.923Z,100698.27
2019-04-25T19:12:13.530Z,100703.36
2019-04-25T19:14:43.102Z,100706.84
2019-04-25T19:17:11.838Z,100735.28
2019-04-25T19:19:41.122Z,100750.92
2019-04-25T19:22:09.714Z,100719.99
2019-04-25T19:24:40.358Z,100736.83
2019-04-25T19:27:08.664Z,100746.83
2019-04-25T19:29:37.280Z,100739.69
2019-04-25T19:32:05.924Z,100740.27
2019-04-25T19:34:34.476Z,100776.23
2019-04-25T19:37:04.100Z,100742.08
2019-04-25T19:39:34.291Z,100741.85
2019-04-25T19:42:16.274Z,100733.53
2019-04-25T19:44:45.107Z,100745.50
2019-04-25T19:47:13.815Z,100751.19
2019-04-25T19:49:42.969Z,100731.48
2019-04-25T19:52:11.474Z,100743.78
2019-04-25T19:54:40.870Z,100741.41
2019-04-25T19:57:10.514Z,100740.12
2019-04-25T19:59:39.077Z,100743.66
2019-04-25T20:02:12.086Z,100750.05
2019-04-25T20:04:45.028Z,100760.75
2019-04-25T20:07:15.298Z,100769.99
2019-04-25T20:09:54.412Z,100783.98
2019-04-25T20:12:24.621Z,100786.23
2019-04-25T20:14:53.573Z,100790.92
2019-04-25T20:17:22.173Z,100793.30
2019-04-25T20:19:51.800Z,100783.63
2019-04-25T20:22:20.424Z,100797.41
2019-04-25T20:24:49.035Z,100792.64
2019-04-25T20:27:17.746Z,100800.13
2019-04-25T20:29:46.588Z,100784.88
2019-04-25T20:32:15.200Z,100783.95
2019-04-25T20:34:44.579Z,100795.09
2019-04-25T20:37:14.193Z,100789.59
2019-04-25T20:39:42.798Z,100773.16
2019-04-25T20:42:11.314Z,100795.22
2019-04-25T20:44:40.016Z,100797.95
2019-04-25T20:47:08.658Z,100781.53
2019-04-25T20:49:37.218Z,100791.58
2019-04-25T20:52:05.872Z,100788.40
2019-04-25T20:54:34.434Z,100779.69
2019-04-25T20:57:02.986Z,100779.46
2019-04-25T20:59:31.596Z,100777.90
2019-04-25T21:02:00.174Z,100791.56
2019-04-25T21:04:41.624Z,100789.97
2019-04-25T21:07:10.629Z,100768.41
2019-04-25T21:09:39.524Z,100771.16
2019-04-25T21:12:08.128Z,100775.98
2019-04-25T21:14:38.460Z,100782.05
2019-04-25T21:17:20.975Z,100784.76
2019-04-25T21:19:51.771Z,100789.27
2019-04-25T21:22:21.371Z,100790.70
2019-04-25T21:24:50.529Z,100774.75
2019-04-25T21:27:20.257Z,100779.28
2019-04-25T21:29:48.859Z,100769.77
2019-04-25T21:32:19.082Z,100762.75
2019-04-25T21:34:47.656Z,100747.44
2019-04-25T21:37:16.506Z,100746.38
2019-04-25T21:39:47.136Z,100747.28
2019-04-25T21:42:21.296Z,100743.08
2019-04-25T21:44:50.180Z,100734.54
2019-04-25T21:47:18.819Z,100736.26
2019-04-25T21:49:47.717Z,100733.21
2019-04-25T21:52:16.301Z,100733.00
2019-04-25T21:54:45.687Z,100737.31
2019-04-25T21:57:15.772Z,100743.70
2019-04-25T21:59:44.491Z,100738.63
2019-04-25T22:02:13.143Z,100733.30
2019-04-25T22:04:42.507Z,100750.50
2019-04-25T22:07:12.368Z,100772.53
2019-04-25T22:09:41.116Z,100769.19
2019-04-25T22:12:10.677Z,100761.25
2019-04-25T22:14:39.296Z,100777.06
2019-04-25T22:17:08.291Z,100787.18
2019-04-25T22:19:37.217Z,100801.61
2019-04-25T22:22:06.833Z,100815.75
2019-04-25T22:24:35.491Z,100813.53
2019-04-25T22:27:06.136Z,100811.00
2019-04-25T22:29:36.469Z,100818.16
2019-04-25T22:32:18.615Z,100822.59
2019-04-25T22:34:52.821Z,100802.78
2019-04-25T22:37:21.342Z,100783.17
2019-04-25T22:39:49.970Z,100791.38
2019-04-25T22:42:18.582Z,100804.94
2019-04-25T22:44:47.276Z,100809.14
2019-04-25T22:47:17.579Z,100797.22
2019-04-25T22:49:46.415Z,100760.86
2019-04-25T22:52:15.329Z,100776.00
2019-04-25T22:54:44.147Z,100778.44
2019-04-25T22:57:12.991Z,100780.67
2019-04-25T22:59:41.845Z,100772.83
2019-04-25T23:02:12.126Z,100781.73
2019-04-25T23:05:04.306Z,100802.44
2019-04-25T23:07:22.005Z,100775.20
2019-04-25T23:09:51.574Z,100766.94
2019-04-25T23:12:20.527Z,100755.25
2019-04-25T23:14:49.140Z,100755.25
2019-04-25T23:17:17.734Z,100748.86
2019-04-25T23:19:46.663Z,100751.53
2019-04-25T23:22:15.292Z,100756.32
2019-04-25T23:24:48.586Z,100759.95
2019-04-25T23:27:18.792Z,100750.64
2019-04-25T23:29:47.360Z,100742.88
2019-04-25T23:32:16.156Z,100734.47
2019-04-25T23:34:44.733Z,100734.66
2019-04-25T23:37:13.132Z,100743.89
2019-04-25T23:39:42.156Z,100763.80
2019-04-25T23:42:11.407Z,100764.55
2019-04-25T23:44:40.302Z,100782.67
2019-04-25T23:47:08.816Z,100785.09
2019-04-25T23:49:37.326Z,100767.36
2019-04-25T23:52:07.268Z,100762.73
2019-04-25T23:54:35.925Z,100764.41
2019-04-25T23:57:04.887Z,100773.53
2019-04-25T23:59:33.475Z,100769.48
